Time;durP1;ratioP1;P1;durP2;ratioP2;P2;SDS_P1;SDS_P2;PMS_P1;PMS_P2;Temp;Humidity;BMP_temperature;BMP_pressure;BME280_temperature;BME280_humidity;BME280_pressure;Samples;Min_cycle;Max_cycle;Signal;HPM_P1;HPM_P2
2021/03/09 00:00:46;;;;;;;38.50;22.95;;;4.00;99.90;;;;;;5112537;27;20067;-67
2021/03/09 00:03:12;;;;;;;37.25;23.33;;;3.90;99.90;;;;;;5111495;28;20059;-67
2021/03/09 00:05:38;;;;;;;35.20;22.98;;;3.90;99.90;;;;;;5113003;28;20032;-67
2021/03/09 00:08:04;;;;;;;43.60;25.55;;;4.00;99.90;;;;;;5109709;27;20457;-67
2021/03/09 00:10:29;;;;;;;39.40;24.58;;;3.90;99.90;;;;;;5113159;27;20508;-67
2021/03/09 00:12:55;;;;;;;43.08;24.40;;;3.90;99.90;;;;;;5111080;27;20082;-67
2021/03/09 00:15:21;;;;;;;37.53;23.63;;;3.90;99.90;;;;;;5113334;27;20036;-67
2021/03/09 00:17:47;;;;;;;43.47;25.95;;;3.90;99.90;;;;;;5111421;27;20032;-67
2021/03/09 00:20:13;;;;;;;41.53;25.15;;;3.90;99.90;;;;;;5112197;28;20063;-67
2021/03/09 00:22:39;;;;;;;39.08;23.95;;;3.90;99.90;;;;;;5107861;27;20044;-67
2021/03/09 00:25:05;;;;;;;33.72;22.48;;;3.90;99.90;;;;;;5111628;27;20085;-67
2021/03/09 00:27:31;;;;;;;38.42;24.23;;;3.90;99.90;;;;;;5109136;27;20028;-67
2021/03/09 00:29:56;;;;;;;37.80;22.35;;;3.90;99.90;;;;;;5109673;27;20049;-67
2021/03/09 00:32:22;;;;;;;39.05;24.02;;;4.00;99.90;;;;;;5115801;27;20051;-67
2021/03/09 00:34:48;;;;;;;35.42;23.05;;;3.90;99.90;;;;;;5110703;27;20072;-67
2021/03/09 00:37:13;;;;;;;36.05;23.27;;;3.90;99.90;;;;;;5113348;27;20038;-67
2021/03/09 00:39:39;;;;;;;41.38;25.25;;;3.90;99.90;;;;;;5112604;27;20045;-67
2021/03/09 00:42:05;;;;;;;38.53;24.38;;;4.00;99.90;;;;;;5113382;27;20031;-67
2021/03/09 00:44:30;;;;;;;41.58;25.55;;;3.90;99.90;;;;;;5110821;27;20039;-67
2021/03/09 00:46:56;;;;;;;41.20;25.08;;;4.00;99.90;;;;;;5092208;27;20043;-67
2021/03/09 00:49:22;;;;;;;43.70;26.35;;;3.90;99.90;;;;;;5109985;28;20807;-67
2021/03/09 00:51:47;;;;;;;43.08;26.45;;;3.90;99.90;;;;;;5110565;28;20492;-67
2021/03/09 00:54:13;;;;;;;43.10;26.00;;;4.00;99.90;;;;;;5111719;27;20469;-67
2021/03/09 00:56:39;;;;;;;39.00;25.73;;;4.00;99.90;;;;;;5111004;27;20542;-66
2021/03/09 00:59:04;;;;;;;39.40;24.33;;;3.90;99.90;;;;;;5111266;28;20036;-67
2021/03/09 01:01:30;;;;;;;41.60;26.90;;;3.90;99.90;;;;;;5108516;28;20553;-67
2021/03/09 01:03:56;;;;;;;39.13;23.95;;;4.00;99.90;;;;;;5093149;28;20093;-67
2021/03/09 01:06:21;;;;;;;39.15;24.52;;;4.00;99.90;;;;;;5109840;27;20394;-67
2021/03/09 01:08:47;;;;;;;40.45;24.20;;;4.00;99.90;;;;;;5109495;27;20473;-67
2021/03/09 01:11:13;;;;;;;41.83;25.45;;;4.00;99.90;;;;;;5111449;27;20382;-67
2021/03/09 01:13:38;;;;;;;38.45;25.00;;;4.00;99.90;;;;;;5110212;27;20035;-67
2021/03/09 01:16:05;;;;;;;37.88;23.75;;;3.90;99.90;;;;;;5109611;27;20032;-67
2021/03/09 01:18:31;;;;;;;35.20;23.10;;;4.00;99.90;;;;;;5108086;27;20485;-67
2021/03/09 01:20:56;;;;;;;38.17;23.90;;;3.90;99.90;;;;;;5109902;27;20055;-67
2021/03/09 01:23:22;;;;;;;36.30;24.02;;;4.00;99.90;;;;;;5109448;27;20465;-66
2021/03/09 01:25:47;;;;;;;37.95;23.17;;;3.90;99.90;;;;;;5109329;27;20031;-66
2021/03/09 01:28:13;;;;;;;35.47;21.52;;;4.00;99.90;;;;;;5107735;27;20032;-67
2021/03/09 01:30:39;;;;;;;32.75;21.92;;;4.00;99.90;;;;;;5109653;28;20031;-67
2021/03/09 01:33:04;;;;;;;35.28;22.30;;;3.90;99.90;;;;;;5105050;28;20047;-67
2021/03/09 01:35:30;;;;;;;39.40;23.13;;;4.00;99.90;;;;;;5109925;28;20038;-67
2021/03/09 01:37:56;;;;;;;35.72;22.25;;;4.00;99.90;;;;;;5108605;28;20439;-67
2021/03/09 01:40:24;;;;;;;35.72;21.80;;;3.90;99.90;;;;;;5108135;28;20096;-67
2021/03/09 01:42:50;;;;;;;36.30;21.70;;;4.00;99.90;;;;;;5108377;27;20036;-67
2021/03/09 01:45:16;;;;;;;36.38;20.98;;;4.00;99.90;;;;;;5088978;28;20540;-67
2021/03/09 01:47:45;;;;;;;32.15;20.92;;;4.00;99.90;;;;;;5109973;27;20028;-67
2021/03/09 01:50:13;;;;;;;30.65;19.70;;;4.00;99.90;;;;;;5107326;27;20040;-67
2021/03/09 01:52:41;;;;;;;31.63;19.15;;;4.00;99.90;;;;;;5111558;27;20366;-67
2021/03/09 01:55:09;;;;;;;29.10;19.75;;;4.00;99.90;;;;;;5111422;27;20394;-67
2021/03/09 01:57:35;;;;;;;34.20;19.92;;;4.00;99.90;;;;;;5109698;27;20428;-67
2021/03/09 02:00:03;;;;;;;30.63;19.33;;;4.00;99.90;;;;;;5112397;27;20130;-67
2021/03/09 02:02:29;;;;;;;33.40;19.45;;;4.00;99.90;;;;;;5109648;27;20040;-67
2021/03/09 02:04:55;;;;;;;31.45;20.13;;;4.00;99.90;;;;;;5112914;27;20044;-67
2021/03/09 02:07:20;;;;;;;27.20;18.88;;;4.00;99.90;;;;;;5108276;28;20027;-67
2021/03/09 02:10:08;;;;;;;32.13;18.80;;;4.00;99.90;;;;;;5109653;28;20108;-67
2021/03/09 02:13:10;;;;;;;28.60;18.48;;;4.00;99.90;;;;;;5106581;28;20035;-67
2021/03/09 02:15:58;;;;;;;30.25;18.65;;;4.10;99.90;;;;;;5105416;28;20055;-67
2021/03/09 02:18:32;;;;;;;29.17;19.52;;;4.10;99.90;;;;;;5108811;28;20538;-67
2021/03/09 02:21:23;;;;;;;27.33;18.20;;;4.10;99.90;;;;;;5111302;28;20067;-67
2021/03/09 02:24:20;;;;;;;29.27;17.60;;;4.10;99.90;;;;;;5107404;28;20058;-67
2021/03/09 02:27:07;;;;;;;31.63;19.67;;;4.10;99.90;;;;;;5108124;28;20043;-67
2021/03/09 02:29:58;;;;;;;31.45;18.83;;;4.10;99.90;;;;;;5108976;28;20040;-67
2021/03/09 02:32:26;;;;;;;27.10;18.13;;;4.10;99.90;;;;;;5102915;28;20102;-67
2021/03/09 02:34:57;;;;;;;31.83;19.50;;;4.10;99.90;;;;;;5110665;28;20051;-67
2021/03/09 02:37:30;;;;;;;30.17;18.38;;;4.10;99.90;;;;;;5107069;28;20156;-67
2021/03/09 02:39:57;;;;;;;29.67;19.20;;;4.10;99.90;;;;;;5107723;28;21458;-67
2021/03/09 02:42:26;;;;;;;27.42;18.75;;;4.10;99.90;;;;;;5108482;28;20031;-67
2021/03/09 02:44:56;;;;;;;26.92;17.67;;;4.10;99.90;;;;;;5108018;28;20039;-67
2021/03/09 02:47:22;;;;;;;28.00;17.67;;;4.10;99.90;;;;;;5108998;28;20034;-67
2021/03/09 02:49:49;;;;;;;30.02;18.73;;;4.20;99.90;;;;;;5109664;28;20036;-67
2021/03/09 02:52:21;;;;;;;32.72;20.05;;;4.20;99.90;;;;;;5113897;27;20075;-67
2021/03/09 02:54:49;;;;;;;30.17;19.73;;;4.10;99.90;;;;;;5111180;27;20503;-67
2021/03/09 02:57:16;;;;;;;29.58;18.20;;;4.20;99.90;;;;;;5112520;28;20169;-67
2021/03/09 02:59:43;;;;;;;33.05;19.67;;;4.20;99.90;;;;;;5113723;27;20035;-67
2021/03/09 03:02:11;;;;;;;33.20;20.45;;;4.20;99.90;;;;;;5114346;27;20039;-67
2021/03/09 03:04:43;;;;;;;32.25;20.10;;;4.20;99.90;;;;;;5113626;27;20035;-67
2021/03/09 03:07:10;;;;;;;26.73;18.48;;;4.20;99.90;;;;;;5112105;27;20454;-67
2021/03/09 03:09:37;;;;;;;29.00;19.42;;;4.20;99.90;;;;;;5111385;27;20028;-67
2021/03/09 03:12:04;;;;;;;30.65;19.60;;;4.20;99.90;;;;;;5113778;27;20528;-67
2021/03/09 03:14:31;;;;;;;29.95;19.45;;;4.20;99.90;;;;;;5112274;28;20397;-67
2021/03/09 03:17:01;;;;;;;29.27;19.15;;;4.20;99.90;;;;;;5113115;27;20470;-67
2021/03/09 03:19:28;;;;;;;27.13;18.38;;;4.20;99.90;;;;;;5115254;27;20122;-67
2021/03/09 03:21:54;;;;;;;31.42;19.75;;;4.20;99.90;;;;;;5113130;27;20047;-67
2021/03/09 03:24:20;;;;;;;32.88;20.50;;;4.20;99.90;;;;;;5110276;27;20485;-67
2021/03/09 03:26:47;;;;;;;30.02;19.55;;;4.20;99.90;;;;;;5108529;27;20504;-67
2021/03/09 03:29:14;;;;;;;34.00;20.27;;;4.20;99.90;;;;;;5113474;27;20040;-67
2021/03/09 03:31:41;;;;;;;28.45;18.40;;;4.30;99.90;;;;;;5109109;27;20122;-67
2021/03/09 03:34:07;;;;;;;29.80;19.27;;;4.30;99.90;;;;;;5112828;27;20035;-67
2021/03/09 03:36:35;;;;;;;29.85;19.77;;;4.30;99.90;;;;;;5113492;27;20028;-67
2021/03/09 03:39:01;;;;;;;30.83;19.75;;;4.30;99.90;;;;;;5111674;27;20043;-67
2021/03/09 03:41:27;;;;;;;30.90;20.27;;;4.20;99.90;;;;;;5113885;27;20047;-67
2021/03/09 03:43:52;;;;;;;36.60;21.52;;;4.30;99.90;;;;;;5111011;27;20067;-67
2021/03/09 03:46:18;;;;;;;29.80;18.80;;;4.30;99.90;;;;;;5110978;27;20097;-67
2021/03/09 03:48:46;;;;;;;34.25;20.63;;;4.30;99.90;;;;;;5110030;27;20032;-67
2021/03/09 03:51:15;;;;;;;33.92;20.98;;;4.30;99.90;;;;;;5111435;27;20069;-67
2021/03/09 03:53:59;;;;;;;32.95;21.38;;;4.30;99.90;;;;;;5111395;27;20059;-67
2021/03/09 03:56:40;;;;;;;32.13;19.92;;;4.30;99.90;;;;;;5111103;27;20104;-67
2021/03/09 03:59:10;;;;;;;29.48;20.33;;;4.30;99.90;;;;;;5113507;27;20115;-67
2021/03/09 04:01:38;;;;;;;33.78;20.15;;;4.30;99.90;;;;;;5111747;27;20035;-67
2021/03/09 04:04:10;;;;;;;36.35;21.38;;;4.30;99.90;;;;;;5111854;27;20088;-67
2021/03/09 04:06:48;;;;;;;32.53;20.90;;;4.40;99.90;;;;;;5109187;27;20032;-67
2021/03/09 04:09:16;;;;;;;33.28;20.38;;;4.30;99.90;;;;;;5112485;27;20112;-67
2021/03/09 04:11:42;;;;;;;36.60;21.52;;;4.40;99.90;;;;;;5111815;27;20596;-67
2021/03/09 04:14:12;;;;;;;36.38;22.17;;;4.40;99.90;;;;;;5112241;27;20641;-67
2021/03/09 04:16:41;;;;;;;35.92;22.65;;;4.40;99.90;;;;;;5113572;27;20117;-67
2021/03/09 04:19:08;;;;;;;38.42;24.08;;;4.40;99.90;;;;;;5111948;27;20059;-67
2021/03/09 04:21:36;;;;;;;38.67;23.13;;;4.40;99.90;;;;;;5113505;27;20048;-67
2021/03/09 04:24:03;;;;;;;37.60;22.30;;;4.40;99.90;;;;;;5111107;27;20043;-67
2021/03/09 04:26:29;;;;;;;37.25;22.80;;;4.40;99.90;;;;;;5112205;27;20108;-67
2021/03/09 04:28:56;;;;;;;37.33;22.98;;;4.40;99.90;;;;;;5111979;27;20443;-67
2021/03/09 04:31:23;;;;;;;38.22;23.50;;;4.40;99.90;;;;;;5091739;28;20075;-67
2021/03/09 04:33:50;;;;;;;47.45;26.52;;;4.50;99.90;;;;;;5111125;27;20038;-67
2021/03/09 04:36:18;;;;;;;38.92;25.30;;;4.50;99.90;;;;;;5111966;27;20031;-67
2021/03/09 04:38:46;;;;;;;39.45;23.80;;;4.50;99.90;;;;;;5111684;27;20028;-67
2021/03/09 04:41:11;;;;;;;39.85;23.45;;;4.50;99.90;;;;;;5108212;27;20040;-67
2021/03/09 04:43:38;;;;;;;37.70;22.98;;;4.50;99.90;;;;;;5108617;28;20134;-67
2021/03/09 04:46:04;;;;;;;35.03;24.33;;;4.50;99.90;;;;;;5110265;28;20089;-67
2021/03/09 04:48:30;;;;;;;38.72;24.45;;;4.50;99.90;;;;;;5111320;27;20028;-67
2021/03/09 04:51:07;;;;;;;41.13;24.45;;;4.50;99.90;;;;;;5108448;27;20079;-67
2021/03/09 04:53:33;;;;;;;39.10;25.02;;;4.50;99.90;;;;;;5112102;27;20036;-67
2021/03/09 04:55:59;;;;;;;41.60;24.80;;;4.60;99.90;;;;;;5110807;27;20035;-67
2021/03/09 04:58:26;;;;;;;41.65;24.90;;;4.60;99.90;;;;;;5111158;27;20032;-67
2021/03/09 05:00:55;;;;;;;40.25;24.85;;;4.60;99.90;;;;;;5110857;27;20065;-67
2021/03/09 05:03:23;;;;;;;42.08;25.13;;;4.60;99.90;;;;;;5111195;27;20035;-67
2021/03/09 05:05:48;;;;;;;41.42;25.67;;;4.60;99.90;;;;;;5110986;27;20119;-67
2021/03/09 05:08:14;;;;;;;41.83;26.50;;;4.60;99.90;;;;;;5113104;27;20732;-67
2021/03/09 05:10:40;;;;;;;47.38;27.75;;;4.70;99.90;;;;;;5109815;27;20062;-67
2021/03/09 05:13:05;;;;;;;53.10;28.23;;;4.60;99.90;;;;;;5117581;27;20118;-67
2021/03/09 05:15:31;;;;;;;51.28;29.75;;;4.70;99.90;;;;;;5112949;27;20066;-67
2021/03/09 05:17:57;;;;;;;54.42;30.08;;;4.60;99.90;;;;;;5109852;27;20036;-67
2021/03/09 05:20:23;;;;;;;63.88;34.30;;;4.70;99.90;;;;;;5109706;28;20075;-67
2021/03/09 05:22:49;;;;;;;65.53;33.45;;;4.70;99.90;;;;;;5110880;27;20100;-67
2021/03/09 05:25:16;;;;;;;54.65;30.88;;;4.70;99.90;;;;;;5113160;27;20039;-67
2021/03/09 05:27:43;;;;;;;55.58;32.05;;;4.70;99.90;;;;;;5107888;27;20027;-67
2021/03/09 05:30:11;;;;;;;54.53;32.08;;;4.70;99.90;;;;;;5108643;27;20035;-67
2021/03/09 05:32:37;;;;;;;57.65;32.28;;;4.70;99.90;;;;;;5103270;28;20064;-67
2021/03/09 05:35:05;;;;;;;58.78;33.33;;;4.80;99.90;;;;;;5102753;28;20075;-67
2021/03/09 05:37:31;;;;;;;64.50;34.22;;;4.80;99.90;;;;;;5104320;28;20482;-67
2021/03/09 05:39:57;;;;;;;62.53;34.78;;;4.80;99.90;;;;;;5105420;27;20089;-67
2021/03/09 05:42:23;;;;;;;74.80;37.03;;;4.80;99.90;;;;;;5106816;27;20470;-67
2021/03/09 05:44:49;;;;;;;71.28;37.50;;;4.80;99.90;;;;;;5107818;28;20445;-67
2021/03/09 05:47:15;;;;;;;68.18;35.90;;;4.90;99.90;;;;;;5108096;28;20040;-67
2021/03/09 05:49:41;;;;;;;81.20;39.40;;;4.80;99.90;;;;;;5110600;28;20035;-67
2021/03/09 05:52:09;;;;;;;83.55;39.10;;;4.80;99.90;;;;;;5109497;28;20093;-67
2021/03/09 05:54:35;;;;;;;71.53;36.38;;;4.90;99.90;;;;;;5109788;28;20067;-67
2021/03/09 05:57:01;;;;;;;83.47;40.13;;;4.90;99.90;;;;;;5086802;28;20051;-67
2021/03/09 05:59:27;;;;;;;76.70;39.38;;;4.90;99.90;;;;;;5106380;28;20496;-67
2021/03/09 06:01:53;;;;;;;91.07;41.60;;;4.90;99.90;;;;;;5105200;28;20113;-67
2021/03/09 06:04:20;;;;;;;86.03;39.78;;;4.90;99.90;;;;;;5102400;28;20044;-67
2021/03/09 06:06:46;;;;;;;80.15;40.97;;;4.90;99.90;;;;;;5104398;28;20458;-67
2021/03/09 06:09:47;;;;;;;77.78;39.10;;;5.00;99.90;;;;;;5107362;28;20112;-67
2021/03/09 06:12:16;;;;;;;78.65;39.33;;;5.00;99.90;;;;;;5003987;28;20050;-67
2021/03/09 06:14:55;;;;;;;88.13;39.97;;;5.00;99.90;;;;;;5081114;28;20044;-67
2021/03/09 06:17:41;;;;;;;79.30;39.88;;;5.00;99.90;;;;;;5108998;28;20027;-67
2021/03/09 06:20:08;;;;;;;67.05;35.90;;;5.00;99.90;;;;;;5103189;28;20118;-67
2021/03/09 06:22:52;;;;;;;62.65;33.65;;;5.00;99.90;;;;;;5106521;28;20138;-67
2021/03/09 06:25:27;;;;;;;74.40;37.03;;;5.00;99.90;;;;;;5103209;28;20039;-67
2021/03/09 06:27:59;;;;;;;66.85;35.53;;;5.10;99.90;;;;;;5105562;28;20032;-67
2021/03/09 06:30:24;;;;;;;74.03;37.05;;;5.10;99.90;;;;;;5106877;28;20042;-67
2021/03/09 06:32:50;;;;;;;67.80;35.30;;;5.10;99.90;;;;;;5109168;28;20106;-67
2021/03/09 06:35:27;;;;;;;97.38;39.85;;;5.10;99.90;;;;;;5110526;28;20032;-67
2021/03/09 06:37:52;;;;;;;60.03;32.83;;;5.10;99.90;;;;;;5108834;28;20047;-67
2021/03/09 06:40:19;;;;;;;66.70;34.22;;;5.20;99.90;;;;;;5109418;28;20535;-67
2021/03/09 06:42:45;;;;;;;79.47;36.47;;;5.20;99.90;;;;;;5107914;28;20039;-67
2021/03/09 06:45:13;;;;;;;80.70;38.05;;;5.20;99.90;;;;;;5108858;28;20031;-67
2021/03/09 06:47:47;;;;;;;60.83;34.00;;;5.20;99.90;;;;;;5109581;28;20486;-67
2021/03/09 06:50:17;;;;;;;57.70;30.92;;;5.20;99.90;;;;;;5109313;28;20500;-67
2021/03/09 06:52:46;;;;;;;83.28;36.65;;;5.30;99.90;;;;;;5109596;28;20031;-67
2021/03/09 06:55:12;;;;;;;79.15;36.88;;;5.20;99.90;;;;;;5109470;28;20032;-67
2021/03/09 06:57:40;;;;;;;63.45;32.88;;;5.20;99.90;;;;;;5109127;28;20116;-67
2021/03/09 07:00:10;;;;;;;58.78;31.35;;;5.30;99.90;;;;;;5108431;28;20032;-67
2021/03/09 07:02:37;;;;;;;88.72;38.25;;;5.30;99.90;;;;;;5106889;28;20053;-67
2021/03/09 07:05:08;;;;;;;55.40;31.20;;;5.30;99.90;;;;;;5109399;28;20381;-67
2021/03/09 07:07:38;;;;;;;60.85;30.85;;;5.30;99.90;;;;;;5106918;28;20394;-67
2021/03/09 07:10:09;;;;;;;56.92;30.73;;;5.40;99.90;;;;;;5106363;28;20505;-67
2021/03/09 07:12:37;;;;;;;93.68;35.10;;;5.40;99.90;;;;;;5107772;28;21049;-67
2021/03/09 07:15:05;;;;;;;66.78;31.13;;;5.40;99.90;;;;;;5109610;28;20044;-67
2021/03/09 07:17:32;;;;;;;72.00;28.73;;;5.40;99.90;;;;;;5109334;28;20036;-67
2021/03/09 07:19:59;;;;;;;79.30;29.95;;;5.50;99.90;;;;;;5107660;28;20040;-67
2021/03/09 07:22:26;;;;;;;71.95;27.23;;;5.50;99.90;;;;;;5108690;28;20042;-67
2021/03/09 07:25:04;;;;;;;80.45;27.58;;;5.50;99.90;;;;;;5109029;28;20085;-67
2021/03/09 07:27:39;;;;;;;121.60;29.40;;;5.60;99.90;;;;;;5107400;28;20043;-67
2021/03/09 07:30:07;;;;;;;126.40;29.35;;;5.60;99.90;;;;;;5109650;28;20040;-67
2021/03/09 07:32:36;;;;;;;126.00;29.58;;;5.70;99.90;;;;;;5089517;28;20061;-67
2021/03/09 07:35:02;;;;;;;132.00;28.90;;;5.60;99.90;;;;;;5109479;28;20051;-68
2021/03/09 07:37:28;;;;;;;110.47;28.00;;;5.70;99.90;;;;;;5111555;28;20038;-67
2021/03/09 07:39:56;;;;;;;134.30;30.35;;;5.70;99.90;;;;;;5109346;28;20043;-67
2021/03/09 07:42:22;;;;;;;112.97;28.25;;;5.70;99.90;;;;;;5111030;28;20035;-68
2021/03/09 07:44:49;;;;;;;141.60;29.23;;;5.70;99.90;;;;;;5108565;27;20038;-68
2021/03/09 07:47:18;;;;;;;93.32;26.30;;;5.80;99.90;;;;;;5108040;28;20039;-68
2021/03/09 07:49:45;;;;;;;82.03;24.85;;;5.80;99.90;;;;;;5110480;27;21357;-68
2021/03/09 07:52:15;;;;;;;89.10;25.13;;;5.80;99.90;;;;;;5111913;27;20097;-67
2021/03/09 07:55:01;;;;;;;88.05;24.60;;;5.80;99.90;;;;;;5111116;28;20539;-68
2021/03/09 07:57:28;;;;;;;96.25;24.95;;;5.80;99.90;;;;;;5092779;28;20460;-68
2021/03/09 07:59:58;;;;;;;109.68;25.92;;;5.80;99.90;;;;;;5108840;27;20043;-68
2021/03/09 08:02:44;;;;;;;105.68;26.67;;;5.90;99.90;;;;;;5109550;28;20066;-68
2021/03/09 08:05:15;;;;;;;101.10;25.95;;;5.90;99.90;;;;;;5109924;28;20116;-68
2021/03/09 08:07:50;;;;;;;111.75;25.25;;;5.90;99.90;;;;;;5109571;28;20034;-68
2021/03/09 08:10:33;;;;;;;77.83;24.90;;;5.90;99.90;;;;;;5108818;28;20080;-68
2021/03/09 08:13:08;;;;;;;80.20;22.70;;;5.90;99.90;;;;;;5111003;28;20040;-68
2021/03/09 08:15:38;;;;;;;60.13;20.83;;;5.90;99.90;;;;;;5107391;28;20039;-68
2021/03/09 08:18:22;;;;;;;112.53;25.30;;;5.90;99.90;;;;;;5107973;27;20043;-68
2021/03/09 08:20:54;;;;;;;67.88;21.65;;;6.00;99.90;;;;;;5110132;28;20031;-68
2021/03/09 08:23:32;;;;;;;67.35;22.35;;;6.00;99.90;;;;;;5109735;28;20526;-68
2021/03/09 08:26:03;;;;;;;90.78;23.40;;;6.00;99.90;;;;;;5110761;28;20481;-68
2021/03/09 08:28:40;;;;;;;65.15;21.13;;;6.00;99.90;;;;;;5110010;28;20451;-68
2021/03/09 08:31:11;;;;;;;79.13;21.25;;;6.00;99.90;;;;;;5110137;28;20051;-68
2021/03/09 08:33:38;;;;;;;68.43;21.75;;;6.00;99.90;;;;;;5109060;28;20039;-68
2021/03/09 08:36:26;;;;;;;87.25;23.23;;;6.10;99.90;;;;;;5110379;28;20047;-68
2021/03/09 08:39:04;;;;;;;86.30;23.10;;;6.00;99.90;;;;;;5111126;28;20039;-68
2021/03/09 08:41:42;;;;;;;84.28;22.15;;;6.00;99.90;;;;;;5110912;28;20044;-68
2021/03/09 08:44:16;;;;;;;56.38;19.50;;;6.10;99.90;;;;;;5111403;28;20040;-68
2021/03/09 08:46:55;;;;;;;86.65;21.73;;;6.10;99.90;;;;;;5107221;28;20119;-68
2021/03/09 08:49:36;;;;;;;71.53;21.50;;;6.10;99.90;;;;;;5109430;28;20048;-68
2021/03/09 08:52:17;;;;;;;59.63;19.77;;;6.10;99.90;;;;;;5105435;28;20039;-68
2021/03/09 08:54:50;;;;;;;61.10;20.85;;;6.20;99.90;;;;;;5108574;28;20051;-68
2021/03/09 08:57:22;;;;;;;66.45;21.95;;;6.20;99.90;;;;;;5109698;28;20082;-68
2021/03/09 08:59:50;;;;;;;50.58;18.60;;;6.20;99.90;;;;;;5106795;28;20039;-68
2021/03/09 09:02:17;;;;;;;68.40;20.55;;;6.20;99.90;;;;;;5103701;27;20138;-68
2021/03/09 09:04:58;;;;;;;67.88;19.08;;;6.20;99.90;;;;;;5109114;28;20053;-68
2021/03/09 09:07:31;;;;;;;65.13;19.80;;;6.20;99.90;;;;;;5106846;28;20050;-68
2021/03/09 09:10:06;;;;;;;53.33;19.73;;;6.20;99.90;;;;;;5106837;28;20036;-68
2021/03/09 09:12:48;;;;;;;50.30;20.20;;;6.30;99.90;;;;;;5109903;27;20031;-68
2021/03/09 09:15:19;;;;;;;55.08;20.00;;;6.30;99.90;;;;;;5108999;28;20039;-68
2021/03/09 09:17:48;;;;;;;65.15;22.15;;;6.30;99.90;;;;;;5104574;28;20027;-68
2021/03/09 09:20:33;;;;;;;66.68;21.27;;;6.30;99.90;;;;;;5110507;27;20508;-68
2021/03/09 09:23:18;;;;;;;68.97;21.15;;;6.30;99.90;;;;;;5107802;28;20130;-68
2021/03/09 09:25:52;;;;;;;53.63;20.02;;;6.30;99.90;;;;;;5108985;27;20039;-68
2021/03/09 09:28:41;;;;;;;53.83;20.08;;;6.30;99.90;;;;;;5109094;28;20036;-68
2021/03/09 09:31:16;;;;;;;58.97;20.35;;;6.30;99.90;;;;;;5110526;28;20084;-68
2021/03/09 09:33:53;;;;;;;66.50;22.42;;;6.30;99.90;;;;;;5107419;28;20035;-68
2021/03/09 09:36:24;;;;;;;50.60;20.83;;;6.40;99.90;;;;;;5090803;27;20101;-68
2021/03/09 09:38:51;;;;;;;45.05;19.25;;;6.40;99.90;;;;;;5108058;28;20106;-68
2021/03/09 09:41:19;;;;;;;61.03;21.88;;;6.40;99.90;;;;;;5106594;28;20039;-68
2021/03/09 09:43:44;;;;;;;53.58;22.58;;;6.40;99.90;;;;;;5107783;28;20044;-68
2021/03/09 09:46:22;;;;;;;40.50;19.70;;;6.40;99.90;;;;;;5110326;27;20461;-68
2021/03/09 09:48:49;;;;;;;37.45;18.52;;;6.50;99.90;;;;;;5097964;27;20039;-68
2021/03/09 09:51:20;;;;;;;39.00;20.02;;;6.50;99.90;;;;;;5097013;28;20048;-68
2021/03/09 09:53:48;;;;;;;38.40;18.65;;;6.50;99.90;;;;;;5095062;28;20598;-68
2021/03/09 09:56:24;;;;;;;49.50;21.67;;;6.50;99.90;;;;;;5099177;28;20042;-68
2021/03/09 09:58:55;;;;;;;42.60;20.65;;;6.50;99.90;;;;;;5096792;27;20036;-68
2021/03/09 10:01:22;;;;;;;43.55;21.77;;;6.50;99.90;;;;;;5097185;28;20094;-68
2021/03/09 10:03:58;;;;;;;49.50;23.17;;;6.50;99.90;;;;;;5097518;28;20043;-68
2021/03/09 10:06:26;;;;;;;52.70;24.45;;;6.50;99.90;;;;;;5106892;28;20054;-68
2021/03/09 10:08:53;;;;;;;39.95;21.55;;;6.50;99.90;;;;;;5106041;28;20119;-68
2021/03/09 10:11:20;;;;;;;42.33;23.92;;;6.50;99.90;;;;;;5097099;28;20044;-68
2021/03/09 10:13:46;;;;;;;40.40;24.88;;;6.50;99.90;;;;;;5097913;28;20554;-68
2021/03/09 10:16:12;;;;;;;40.58;25.27;;;6.50;99.90;;;;;;5082683;28;20488;-68
2021/03/09 10:18:39;;;;;;;41.33;26.65;;;6.40;99.90;;;;;;5099343;28;20034;-68
2021/03/09 10:21:11;;;;;;;43.13;27.13;;;6.40;99.90;;;;;;5099689;28;22554;-68
2021/03/09 10:23:51;;;;;;;42.78;26.60;;;6.40;99.90;;;;;;5081782;28;20115;-68
2021/03/09 10:26:26;;;;;;;38.95;27.05;;;6.50;99.90;;;;;;5099169;28;20040;-68
2021/03/09 10:29:14;;;;;;;44.28;27.70;;;6.40;99.90;;;;;;5098598;28;20062;-67
2021/03/09 10:31:49;;;;;;;39.42;25.77;;;6.40;99.90;;;;;;5097849;28;20109;-68
2021/03/09 10:34:17;;;;;;;42.13;27.55;;;6.40;99.90;;;;;;5102859;28;20031;-68
2021/03/09 10:37:02;;;;;;;43.60;28.20;;;6.40;99.90;;;;;;5106542;28;20070;-68
2021/03/09 10:39:33;;;;;;;37.88;26.00;;;6.40;99.90;;;;;;5107253;28;20108;-68
2021/03/09 10:42:36;;;;;;;43.50;27.08;;;6.40;99.90;;;;;;5108525;28;20053;-68
2021/03/09 10:45:32;;;;;;;45.42;27.90;;;6.40;99.90;;;;;;5107055;28;20043;-68
2021/03/09 10:48:00;;;;;;;41.08;27.35;;;6.50;99.90;;;;;;5086964;28;20055;-68
2021/03/09 10:50:31;;;;;;;39.58;25.67;;;6.60;99.90;;;;;;5098137;28;20399;-68
2021/03/09 10:52:58;;;;;;;39.53;24.70;;;6.70;99.90;;;;;;5095914;28;20432;-68
2021/03/09 10:55:24;;;;;;;33.08;23.27;;;6.60;99.90;;;;;;5099590;28;20070;-68
2021/03/09 10:57:50;;;;;;;37.58;24.65;;;6.60;99.90;;;;;;5096921;28;20036;-68
2021/03/09 11:00:18;;;;;;;37.50;25.05;;;6.60;99.90;;;;;;5109446;27;20048;-68
2021/03/09 11:02:45;;;;;;;32.05;22.90;;;6.60;99.90;;;;;;5097653;28;20096;-68
2021/03/09 11:05:12;;;;;;;37.20;24.35;;;6.60;99.90;;;;;;5098030;28;20046;-68
2021/03/09 11:07:39;;;;;;;40.17;26.15;;;6.60;99.90;;;;;;5101444;28;20044;-68
2021/03/09 11:10:06;;;;;;;38.97;25.73;;;6.60;99.90;;;;;;5101678;28;20039;-68
2021/03/09 11:12:32;;;;;;;38.25;24.70;;;6.70;99.90;;;;;;5106447;28;20545;-68
2021/03/09 11:14:58;;;;;;;37.35;26.23;;;6.70;99.90;;;;;;5104701;28;20130;-68
2021/03/09 11:17:24;;;;;;;36.90;25.92;;;6.70;99.90;;;;;;5084762;28;20154;-68
2021/03/09 11:19:50;;;;;;;35.83;26.50;;;6.70;99.90;;;;;;5099190;28;20066;-68
2021/03/09 11:22:16;;;;;;;36.90;25.85;;;6.60;99.90;;;;;;5105276;28;20098;-68
2021/03/09 11:24:42;;;;;;;35.70;24.58;;;6.60;99.90;;;;;;5104116;28;20046;-68
2021/03/09 11:27:09;;;;;;;33.58;23.25;;;6.50;99.90;;;;;;5100851;28;20115;-68
2021/03/09 11:29:36;;;;;;;38.35;25.15;;;6.40;99.90;;;;;;5101117;28;20032;-68
2021/03/09 11:32:02;;;;;;;46.80;26.48;;;6.40;99.90;;;;;;5103799;28;20043;-68
2021/03/09 11:34:28;;;;;;;47.58;26.42;;;6.30;99.90;;;;;;5102919;28;20054;-67
2021/03/09 11:36:54;;;;;;;56.00;28.42;;;6.30;99.90;;;;;;5098090;28;20036;-68
2021/03/09 11:39:21;;;;;;;38.92;25.83;;;6.40;99.90;;;;;;5107531;28;20407;-68
2021/03/09 11:41:49;;;;;;;47.25;25.35;;;6.40;99.90;;;;;;5109246;28;20481;-68
2021/03/09 11:44:15;;;;;;;35.70;24.02;;;6.40;99.90;;;;;;5105612;28;20032;-68
2021/03/09 11:46:41;;;;;;;43.53;24.90;;;6.40;99.90;;;;;;5110207;28;20031;-68
2021/03/09 11:49:07;;;;;;;48.92;26.20;;;6.40;99.90;;;;;;5108338;28;20062;-67
2021/03/09 11:51:33;;;;;;;41.17;24.85;;;6.30;99.90;;;;;;5098782;28;20410;-68
2021/03/09 11:53:59;;;;;;;33.42;22.52;;;6.30;99.90;;;;;;5104310;28;20031;-68
2021/03/09 11:56:25;;;;;;;31.75;22.00;;;6.30;99.90;;;;;;5105511;28;20148;-68
2021/03/09 11:58:51;;;;;;;30.23;20.80;;;6.20;99.90;;;;;;5102695;28;20501;-68
2021/03/09 12:01:18;;;;;;;35.05;23.48;;;6.30;99.90;;;;;;5106585;28;20035;-67
2021/03/09 12:03:43;;;;;;;32.05;22.13;;;6.20;99.90;;;;;;5106954;28;20100;-68
2021/03/09 12:06:09;;;;;;;26.65;20.13;;;6.30;99.90;;;;;;5108530;28;20478;-68
2021/03/09 12:08:35;;;;;;;26.80;20.30;;;6.30;99.90;;;;;;5112081;28;21013;-68
2021/03/09 12:11:01;;;;;;;30.42;20.27;;;6.20;99.90;;;;;;5098566;27;20048;-68
2021/03/09 12:13:27;;;;;;;28.58;19.77;;;6.30;99.90;;;;;;5099712;27;20058;-67
2021/03/09 12:15:53;;;;;;;22.83;17.23;;;6.30;99.90;;;;;;5099051;28;20039;-68
2021/03/09 12:18:19;;;;;;;22.80;18.02;;;6.30;99.90;;;;;;5098398;28;20036;-68
2021/03/09 12:20:44;;;;;;;20.95;17.35;;;6.30;99.90;;;;;;5096777;28;20047;-68
2021/03/09 12:23:12;;;;;;;24.52;19.17;;;6.30;99.90;;;;;;5096369;27;21894;-68
2021/03/09 12:25:39;;;;;;;23.08;18.35;;;6.30;99.90;;;;;;5097688;27;20044;-68
2021/03/09 12:28:05;;;;;;;24.95;19.05;;;6.30;99.90;;;;;;5099421;28;20092;-68
2021/03/09 12:30:32;;;;;;;22.73;18.27;;;6.30;99.90;;;;;;5103380;28;20130;-68
2021/03/09 12:32:58;;;;;;;22.38;17.88;;;6.30;99.90;;;;;;5108019;28;20513;-68
2021/03/09 12:35:24;;;;;;;24.92;18.15;;;6.30;99.90;;;;;;5107360;28;20035;-68
2021/03/09 12:37:50;;;;;;;23.38;17.48;;;6.40;99.90;;;;;;5111257;28;20040;-68
2021/03/09 12:40:16;;;;;;;20.08;16.80;;;6.30;99.90;;;;;;5111159;28;20032;-68
2021/03/09 12:42:42;;;;;;;23.33;17.65;;;6.30;99.90;;;;;;5093355;28;20039;-68
2021/03/09 12:45:09;;;;;;;25.23;19.83;;;6.40;99.90;;;;;;5109312;28;20044;-68
2021/03/09 12:47:35;;;;;;;22.15;18.13;;;6.40;99.90;;;;;;5104295;28;20393;-68